Aviation Digital Data Service (ADDS)

Output produced by METARs form (0010 UTC 23 March 2019)
found at http://www.aviationweather.gov/metar/data/
 
Forecast for: VEGT (GAUHATI (IN-AFB), IN)
Text: TAF VEGT 222000Z 2221/2306 03008KT 2500 TS SCT018 FEW025CB BKN100
Forecast period: 2100 UTC 22 March 2019 to 0000 UTC 23 March 2019
Forecast type: FROM: standard forecast or significant change
Winds: from the NNE (30 degrees) at 9 MPH (8 knots; 4.1 m/s)
Visibility: 1.55 miles (2.49 km)
Ceiling: 10000 feet AGL
Clouds: scattered clouds at 1800 feet AGL
few clouds at 2500 feet AGL
broken clouds at 10000 feet AGL
Weather: TS  (thunderstorm)
Text: BECMG 2300/2302 00000KT 1500 BR SCT018 BKN100
Forecast period: 0000 to 0300 UTC 23 March 2019
Forecast type: BECOMING: Conditions expected to become as follows by 0200 UTC 23 March 2019
Winds: calm
Visibility: 0.93 miles (1.50 km)
Ceiling: 10000 feet AGL
Clouds: scattered clouds at 1800 feet AGL
broken clouds at 10000 feet AGL
Weather: BR  (mist)
Text: BECMG 2303/2305 03006KT 3000 HZ FEW020 SCT100
Forecast period: 0300 to 0600 UTC 23 March 2019
Forecast type: BECOMING: Conditions expected to become as follows by 0500 UTC 23 March 2019
Winds: from the NNE (30 degrees) at 7 MPH (6 knots; 3.1 m/s)
Visibility: 1.86 miles (2.99 km)
Ceiling: at least 12,000 feet AGL
Clouds: few clouds at 2000 feet AGL
scattered clouds at 10000 feet AGL
Weather: HZ  (haze)